Time;durP1;ratioP1;P1;durP2;ratioP2;P2;SDS_P1;SDS_P2;PMS_P1;PMS_P2;Temp;Humidity;BMP_temperature;BMP_pressure;BME280_temperature;BME280_humidity;BME280_pressure;Samples;Min_cycle;Max_cycle;Signal;HPM_P1;HPM_P2
2023/10/23 00:01:35;;;;;;;11.63;10.57;;;9.90;99.90;;;;;;5075478;28;20965;-71
2023/10/23 00:04:04;;;;;;;11.90;10.80;;;9.80;99.90;;;;;;5075836;28;20471;-71
2023/10/23 00:06:32;;;;;;;11.37;10.47;;;9.80;99.90;;;;;;5075142;28;20491;-71
2023/10/23 00:09:01;;;;;;;11.67;10.60;;;9.80;99.90;;;;;;5075144;28;20448;-71
2023/10/23 00:11:31;;;;;;;11.20;10.37;;;9.80;99.90;;;;;;5075402;28;20467;-71
2023/10/23 00:14:00;;;;;;;12.57;11.57;;;9.70;99.90;;;;;;5075357;28;20445;-71
2023/10/23 00:16:28;;;;;;;11.50;10.50;;;9.70;99.90;;;;;;5075120;28;20777;-71
2023/10/23 00:18:56;;;;;;;11.60;10.67;;;9.70;99.90;;;;;;5075287;28;20437;-71
2023/10/23 00:21:24;;;;;;;12.07;10.97;;;9.70;99.90;;;;;;5075067;28;20847;-71
2023/10/23 00:23:53;;;;;;;11.80;10.80;;;9.60;99.90;;;;;;5073633;28;20529;-71
2023/10/23 00:26:21;;;;;;;11.40;10.40;;;9.60;99.90;;;;;;5074767;28;20441;-71
2023/10/23 00:28:54;;;;;;;11.37;10.20;;;9.60;99.90;;;;;;5075081;28;20504;-71
2023/10/23 00:31:23;;;;;;;11.67;10.77;;;9.60;99.90;;;;;;5073807;28;20804;-71
2023/10/23 00:33:51;;;;;;;11.77;10.77;;;9.60;99.90;;;;;;5073396;28;20445;-71
2023/10/23 00:36:19;;;;;;;12.17;11.07;;;9.50;99.90;;;;;;5074921;28;20506;-71
2023/10/23 00:38:48;;;;;;;11.77;10.77;;;9.50;99.90;;;;;;5073277;28;20510;-71
2023/10/23 00:41:16;;;;;;;11.20;10.30;;;9.50;99.90;;;;;;5073260;28;20449;-71
2023/10/23 00:43:44;;;;;;;11.33;10.30;;;9.50;99.90;;;;;;5072288;28;20480;-71
2023/10/23 00:46:16;;;;;;;11.60;10.50;;;9.40;99.90;;;;;;5073122;28;20533;-71
2023/10/23 00:48:46;;;;;;;11.70;10.80;;;9.40;99.90;;;;;;5073365;28;20888;-71
2023/10/23 00:51:16;;;;;;;12.00;11.00;;;9.40;99.90;;;;;;5073138;28;20461;-71
2023/10/23 00:53:45;;;;;;;11.27;10.37;;;9.40;99.90;;;;;;5073104;28;20429;-71
2023/10/23 00:56:13;;;;;;;11.77;10.77;;;9.30;99.90;;;;;;5073188;28;20446;-71
2023/10/23 00:58:43;;;;;;;11.30;10.40;;;9.30;99.90;;;;;;5074150;28;20457;-71
2023/10/23 01:01:12;;;;;;;12.03;11.03;;;9.30;99.90;;;;;;5073041;28;20481;-71
2023/10/23 01:03:43;;;;;;;11.07;10.03;;;9.30;99.90;;;;;;5073996;28;20469;-71
2023/10/23 01:06:13;;;;;;;11.70;10.80;;;9.30;99.90;;;;;;5074669;28;20420;-71
2023/10/23 01:08:43;;;;;;;12.00;11.00;;;9.20;99.90;;;;;;5073968;28;20973;-71
2023/10/23 01:11:11;;;;;;;13.43;12.20;;;9.20;99.90;;;;;;5072667;28;20469;-71
2023/10/23 01:13:39;;;;;;;12.17;11.17;;;9.20;99.90;;;;;;5072563;28;20485;-71
2023/10/23 01:16:07;;;;;;;12.10;11.10;;;9.20;99.90;;;;;;5072547;28;20922;-71
2023/10/23 01:18:36;;;;;;;13.40;12.23;;;9.20;99.90;;;;;;5072419;28;20499;-71
2023/10/23 01:21:05;;;;;;;12.43;11.43;;;9.20;99.90;;;;;;5072712;28;20846;-71
2023/10/23 01:23:36;;;;;;;12.57;11.57;;;9.10;99.90;;;;;;5074184;28;20496;-71
2023/10/23 01:26:05;;;;;;;12.33;11.23;;;9.10;99.90;;;;;;5073947;28;20887;-71
2023/10/23 01:28:33;;;;;;;12.27;11.17;;;9.10;99.90;;;;;;5072280;28;21043;-71
2023/10/23 01:31:01;;;;;;;11.50;10.50;;;9.10;99.90;;;;;;5072558;28;20958;-71
2023/10/23 01:33:30;;;;;;;12.47;11.33;;;9.00;99.90;;;;;;5072318;28;20445;-71
2023/10/23 01:35:58;;;;;;;12.97;11.73;;;9.00;99.90;;;;;;5072287;28;20437;-71
2023/10/23 01:38:26;;;;;;;10.30;9.20;;;9.00;99.90;;;;;;5072179;28;20472;-71
2023/10/23 01:40:54;;;;;;;11.80;10.70;;;9.00;99.90;;;;;;5072266;28;20537;-71
2023/10/23 01:43:24;;;;;;;12.93;11.73;;;9.00;99.90;;;;;;5073672;28;20492;-71
2023/10/23 01:45:52;;;;;;;13.10;11.90;;;9.00;99.90;;;;;;5072137;28;20473;-71
2023/10/23 01:48:21;;;;;;;12.53;11.53;;;9.00;99.90;;;;;;5071967;28;20468;-71
2023/10/23 01:50:50;;;;;;;13.30;12.00;;;8.90;99.90;;;;;;5073309;28;20472;-71
2023/10/23 01:53:18;;;;;;;12.13;11.13;;;8.90;99.90;;;;;;5072118;28;20441;-71
2023/10/23 01:55:46;;;;;;;12.60;11.40;;;8.90;99.90;;;;;;5071777;28;20448;-71
2023/10/23 01:58:15;;;;;;;11.30;10.40;;;8.90;99.90;;;;;;5071937;28;20461;-71
2023/10/23 02:00:44;;;;;;;14.47;13.07;;;8.90;99.90;;;;;;5071992;28;20999;-71
2023/10/23 02:03:12;;;;;;;14.80;13.30;;;8.90;99.90;;;;;;5073153;28;20468;-71
2023/10/23 02:05:41;;;;;;;13.60;12.37;;;8.80;99.90;;;;;;5071978;28;20441;-71
2023/10/23 02:08:09;;;;;;;13.10;12.00;;;8.80;99.90;;;;;;5071886;28;20836;-71
2023/10/23 02:10:37;;;;;;;12.83;11.73;;;8.80;99.90;;;;;;5071947;28;20444;-71
2023/10/23 02:13:05;;;;;;;14.43;13.23;;;8.80;99.90;;;;;;5071903;28;20469;-71
2023/10/23 02:15:33;;;;;;;13.30;12.10;;;8.80;99.90;;;;;;5072077;28;20479;-71
2023/10/23 02:18:03;;;;;;;13.93;12.63;;;8.80;99.90;;;;;;5071705;28;21104;-71
2023/10/23 02:20:31;;;;;;;13.13;12.00;;;8.80;99.90;;;;;;5072056;28;20477;-71
2023/10/23 02:23:00;;;;;;;14.93;13.53;;;8.80;99.90;;;;;;5071937;28;20465;-71
2023/10/23 02:25:28;;;;;;;13.30;12.10;;;8.70;99.90;;;;;;5073651;28;20475;-71
2023/10/23 02:27:56;;;;;;;12.93;11.83;;;8.70;99.90;;;;;;5073142;28;20954;-71
2023/10/23 02:30:24;;;;;;;12.93;11.80;;;8.70;99.90;;;;;;5071940;28;20441;-71
2023/10/23 02:32:53;;;;;;;14.10;12.90;;;8.70;99.90;;;;;;5071650;28;20444;-71
2023/10/23 02:35:22;;;;;;;14.13;12.83;;;8.70;99.90;;;;;;5071706;28;20437;-71
2023/10/23 02:37:52;;;;;;;14.57;13.33;;;8.70;99.90;;;;;;5071653;28;20461;-71
2023/10/23 02:40:20;;;;;;;13.70;12.40;;;8.70;99.90;;;;;;5071654;28;20445;-71
2023/10/23 02:42:49;;;;;;;13.20;12.00;;;8.70;99.90;;;;;;5071986;28;20473;-71
2023/10/23 02:45:18;;;;;;;14.23;12.90;;;8.60;99.90;;;;;;5071568;28;20437;-71
2023/10/23 02:47:46;;;;;;;14.97;13.67;;;8.60;99.90;;;;;;5072738;28;20461;-71
2023/10/23 02:50:14;;;;;;;15.80;14.20;;;8.60;99.90;;;;;;5072755;28;20451;-71
2023/10/23 02:52:43;;;;;;;16.27;14.73;;;8.60;99.90;;;;;;5071438;28;20463;-71
2023/10/23 02:55:12;;;;;;;15.10;13.70;;;8.60;99.90;;;;;;5071437;28;20937;-71
2023/10/23 02:57:40;;;;;;;15.33;13.93;;;8.60;99.90;;;;;;5071392;28;20461;-71
2023/10/23 03:00:09;;;;;;;16.60;15.10;;;8.60;99.90;;;;;;5072797;28;20471;-71
2023/10/23 03:02:37;;;;;;;14.53;13.03;;;8.60;99.90;;;;;;5071365;28;20444;-72
2023/10/23 03:05:07;;;;;;;16.20;14.60;;;8.60;99.90;;;;;;5072618;28;20945;-72
2023/10/23 03:07:35;;;;;;;18.13;16.23;;;8.50;99.90;;;;;;5073281;28;20881;-72
2023/10/23 03:10:06;;;;;;;15.93;14.30;;;8.50;99.90;;;;;;5075019;28;20456;-71
2023/10/23 03:12:35;;;;;;;15.00;13.50;;;8.50;99.90;;;;;;5076719;28;20519;-71
2023/10/23 03:15:04;;;;;;;22.97;20.67;;;8.50;99.90;;;;;;5076162;28;20922;-71
2023/10/23 03:17:33;;;;;;;22.90;20.53;;;8.50;99.90;;;;;;5074936;28;20468;-71
2023/10/23 03:20:01;;;;;;;20.10;17.93;;;8.50;99.90;;;;;;5074804;28;20445;-71
2023/10/23 03:22:29;;;;;;;18.73;16.93;;;8.50;99.90;;;;;;5074705;28;21000;-71
2023/10/23 03:24:57;;;;;;;17.43;15.43;;;8.50;99.90;;;;;;5074629;28;20476;-71
2023/10/23 03:27:27;;;;;;;16.13;14.17;;;8.50;99.90;;;;;;5074637;28;20551;-72
2023/10/23 03:29:55;;;;;;;16.47;14.87;;;8.50;99.90;;;;;;5074654;28;20457;-71
2023/10/23 03:32:23;;;;;;;16.13;14.63;;;8.40;99.90;;;;;;5074621;28;20449;-71
2023/10/23 03:34:51;;;;;;;15.77;14.13;;;8.40;99.90;;;;;;5075912;28;20802;-71
2023/10/23 03:37:20;;;;;;;16.00;14.47;;;8.40;99.90;;;;;;5075974;28;20457;-71
2023/10/23 03:39:49;;;;;;;15.07;13.67;;;8.40;99.90;;;;;;5076035;28;20451;-71
2023/10/23 03:42:18;;;;;;;13.40;12.10;;;8.40;99.90;;;;;;5074576;28;20451;-72
2023/10/23 03:44:47;;;;;;;13.97;12.77;;;8.40;99.90;;;;;;5074345;28;20468;-72
2023/10/23 03:47:15;;;;;;;14.30;13.00;;;8.40;99.90;;;;;;5075146;28;20882;-72
2023/10/23 03:49:43;;;;;;;15.33;13.90;;;8.30;99.90;;;;;;5074334;28;20970;-72
2023/10/23 03:52:11;;;;;;;13.77;12.47;;;8.30;99.90;;;;;;5075970;28;20781;-72
2023/10/23 03:54:39;;;;;;;14.33;13.03;;;8.30;99.90;;;;;;5075498;28;20440;-72
2023/10/23 03:57:08;;;;;;;14.60;13.20;;;8.30;99.90;;;;;;5074911;28;20938;-72
2023/10/23 03:59:36;;;;;;;15.53;14.03;;;8.30;99.90;;;;;;5075439;28;20449;-71
2023/10/23 04:02:05;;;;;;;14.30;13.00;;;8.30;99.90;;;;;;5074166;28;20453;-71
2023/10/23 04:04:33;;;;;;;15.03;13.70;;;8.20;99.90;;;;;;5075278;28;20996;-71
2023/10/23 04:07:02;;;;;;;15.43;13.93;;;8.20;99.90;;;;;;5075357;28;20463;-71
2023/10/23 04:09:30;;;;;;;15.10;13.70;;;8.20;99.90;;;;;;5075572;28;20472;-71
2023/10/23 04:11:59;;;;;;;15.47;14.10;;;8.20;99.90;;;;;;5074187;28;20949;-71
2023/10/23 04:14:27;;;;;;;14.80;13.37;;;8.20;99.90;;;;;;5073955;28;20532;-72
2023/10/23 04:16:55;;;;;;;16.43;14.80;;;8.20;99.90;;;;;;5075000;28;20485;-71
2023/10/23 04:19:24;;;;;;;15.27;13.67;;;8.20;99.90;;;;;;5074918;28;20446;-72
2023/10/23 04:21:52;;;;;;;14.63;13.13;;;8.10;99.90;;;;;;5075166;28;20437;-72
2023/10/23 04:24:20;;;;;;;14.10;12.80;;;8.10;99.90;;;;;;5075135;28;20512;-71
2023/10/23 04:26:48;;;;;;;15.60;14.10;;;8.10;99.90;;;;;;5075046;28;21010;-71
2023/10/23 04:29:16;;;;;;;15.17;13.77;;;8.10;99.90;;;;;;5075690;28;20552;-71
2023/10/23 04:31:44;;;;;;;16.37;14.67;;;8.10;99.90;;;;;;5075329;28;20469;-71
2023/10/23 04:34:14;;;;;;;15.87;14.13;;;8.10;99.90;;;;;;5073479;28;20941;-71
2023/10/23 04:36:44;;;;;;;16.17;14.37;;;8.10;99.90;;;;;;5075353;28;20921;-71
2023/10/23 04:39:12;;;;;;;16.47;14.57;;;8.00;99.90;;;;;;5074626;28;20491;-72
2023/10/23 04:41:40;;;;;;;17.47;15.97;;;8.00;99.90;;;;;;5074663;28;20776;-72
2023/10/23 04:44:08;;;;;;;21.83;16.30;;;8.00;99.90;;;;;;5074458;28;20469;-72
2023/10/23 04:46:36;;;;;;;21.27;15.77;;;8.00;99.90;;;;;;5074757;28;20487;-72
2023/10/23 04:49:04;;;;;;;24.43;15.17;;;8.00;99.90;;;;;;5074678;28;20475;-72
2023/10/23 04:51:34;;;;;;;19.63;15.10;;;8.00;99.90;;;;;;5074288;28;20959;-72
2023/10/23 04:54:04;;;;;;;24.23;14.17;;;8.00;99.90;;;;;;5074353;28;20437;-71
2023/10/23 04:56:32;;;;;;;28.80;13.17;;;8.00;99.90;;;;;;5072997;28;20451;-72
2023/10/23 04:59:00;;;;;;;20.13;13.80;;;7.90;99.90;;;;;;5074270;28;20956;-71
2023/10/23 05:01:28;;;;;;;21.40;13.83;;;7.90;99.90;;;;;;5074286;28;21000;-71
2023/10/23 05:03:56;;;;;;;19.03;13.93;;;7.90;99.90;;;;;;5074189;28;20483;-71
2023/10/23 05:06:25;;;;;;;19.10;13.83;;;7.90;99.90;;;;;;5074108;28;20465;-71
2023/10/23 05:08:54;;;;;;;15.20;13.70;;;7.80;99.90;;;;;;5072876;28;20812;-71
2023/10/23 05:11:24;;;;;;;16.00;13.80;;;7.80;99.90;;;;;;5073113;28;20976;-71
2023/10/23 05:13:52;;;;;;;26.80;14.93;;;7.80;99.90;;;;;;5072675;28;21001;-71
2023/10/23 05:16:20;;;;;;;15.60;14.17;;;7.80;99.90;;;;;;5073996;28;20435;-71
2023/10/23 05:18:49;;;;;;;20.43;14.10;;;7.80;99.90;;;;;;5073744;28;20872;-71
2023/10/23 05:21:18;;;;;;;21.57;14.30;;;7.80;99.90;;;;;;5073877;28;20982;-71
2023/10/23 05:23:46;;;;;;;24.33;14.30;;;7.80;99.90;;;;;;5073733;28;20512;-71
2023/10/23 05:26:14;;;;;;;20.10;14.20;;;7.70;99.90;;;;;;5072780;28;20840;-71
2023/10/23 05:28:44;;;;;;;17.00;14.00;;;7.70;99.90;;;;;;5073700;28;20471;-71
2023/10/23 05:31:12;;;;;;;19.13;14.57;;;7.70;99.90;;;;;;5073188;28;20488;-71
2023/10/23 05:33:40;;;;;;;22.30;15.00;;;7.70;99.90;;;;;;5072540;28;20449;-71
2023/10/23 05:36:09;;;;;;;14.87;13.43;;;7.70;99.90;;;;;;5073641;28;20538;-71
2023/10/23 05:38:39;;;;;;;14.70;13.30;;;7.70;99.90;;;;;;5073525;28;20483;-71
2023/10/23 05:41:07;;;;;;;15.80;14.10;;;7.70;99.90;;;;;;5073152;28;20501;-71
2023/10/23 05:43:36;;;;;;;14.27;12.77;;;7.60;99.90;;;;;;5073646;28;21000;-72
2023/10/23 05:46:06;;;;;;;18.60;13.17;;;7.60;99.90;;;;;;5072333;28;20480;-71
2023/10/23 05:48:36;;;;;;;14.60;13.20;;;7.60;99.90;;;;;;5072633;28;20460;-71
2023/10/23 05:51:06;;;;;;;14.90;13.20;;;7.60;99.90;;;;;;5072113;28;20451;-71
2023/10/23 05:53:34;;;;;;;14.70;13.30;;;7.60;99.90;;;;;;5073510;28;20447;-71
2023/10/23 05:56:03;;;;;;;15.90;14.33;;;7.60;99.90;;;;;;5074005;28;20444;-71
2023/10/23 05:58:32;;;;;;;15.27;13.87;;;7.60;99.90;;;;;;5073230;28;20463;-71
2023/10/23 06:01:06;;;;;;;14.40;13.10;;;7.60;99.90;;;;;;5073521;28;20527;-71
2023/10/23 06:03:34;;;;;;;15.63;14.33;;;7.60;99.90;;;;;;5073370;28;20481;-71
2023/10/23 06:06:03;;;;;;;14.93;13.43;;;7.60;99.90;;;;;;5073313;28;20470;-71
2023/10/23 06:08:32;;;;;;;14.80;13.47;;;7.60;99.90;;;;;;5071891;28;20590;-71
2023/10/23 06:11:00;;;;;;;15.63;14.10;;;7.50;99.90;;;;;;5073390;28;20996;-72
2023/10/23 06:13:29;;;;;;;13.67;12.27;;;7.50;99.90;;;;;;5073694;28;20440;-71
2023/10/23 06:16:04;;;;;;;13.53;12.23;;;7.50;99.90;;;;;;5073214;28;20512;-71
2023/10/23 06:18:35;;;;;;;13.70;12.50;;;7.50;99.90;;;;;;5073236;28;20452;-71
2023/10/23 06:21:05;;;;;;;15.53;13.60;;;7.50;99.90;;;;;;5073164;28;20515;-71
2023/10/23 06:23:34;;;;;;;14.37;13.07;;;7.50;99.90;;;;;;5073165;28;20439;-71
2023/10/23 06:26:02;;;;;;;14.67;13.20;;;7.50;99.90;;;;;;5072969;28;20468;-71
2023/10/23 06:28:30;;;;;;;11.00;10.00;;;7.40;99.90;;;;;;5071757;28;20562;-71
2023/10/23 06:31:05;;;;;;;14.60;12.20;;;7.40;99.90;;;;;;5073237;28;20434;-71
2023/10/23 06:33:35;;;;;;;13.97;12.70;;;7.40;99.90;;;;;;5073357;28;20473;-71
2023/10/23 06:36:04;;;;;;;13.90;12.43;;;7.40;99.90;;;;;;5072963;28;20449;-71
2023/10/23 06:38:32;;;;;;;14.33;13.13;;;7.40;99.90;;;;;;5071747;28;20576;-71
2023/10/23 06:41:04;;;;;;;15.10;13.70;;;7.40;99.90;;;;;;5072923;28;20527;-71
2023/10/23 06:43:32;;;;;;;14.00;12.73;;;7.40;99.90;;;;;;5076843;28;20875;-71
2023/10/23 06:46:01;;;;;;;16.77;13.90;;;7.40;99.90;;;;;;5075666;28;20475;-71
2023/10/23 06:48:30;;;;;;;16.80;15.10;;;7.40;99.90;;;;;;5076731;28;20458;-71
2023/10/23 06:51:00;;;;;;;21.40;13.13;;;7.50;99.90;;;;;;5075628;28;20460;-71
2023/10/23 06:53:29;;;;;;;15.70;13.70;;;7.40;99.90;;;;;;5075484;28;20494;-71
2023/10/23 06:55:57;;;;;;;15.10;13.70;;;7.40;99.90;;;;;;5076731;28;20447;-71
2023/10/23 06:58:25;;;;;;;14.13;12.70;;;7.50;99.90;;;;;;5075521;28;20471;-71
2023/10/23 07:00:53;;;;;;;15.87;13.37;;;7.50;99.90;;;;;;5076806;28;20467;-71
2023/10/23 07:03:21;;;;;;;14.83;13.20;;;7.50;99.90;;;;;;5076532;28;20810;-71
2023/10/23 07:05:49;;;;;;;14.63;13.23;;;7.50;99.90;;;;;;5076716;28;20557;-71
2023/10/23 07:08:19;;;;;;;15.67;14.17;;;7.50;99.90;;;;;;5095533;28;20477;-71
2023/10/23 07:10:47;;;;;;;16.47;14.17;;;7.50;99.90;;;;;;5083852;28;20936;-71
2023/10/23 07:13:16;;;;;;;19.20;13.17;;;7.50;99.90;;;;;;5076387;28;20433;-72
2023/10/23 07:15:50;;;;;;;14.73;13.17;;;7.50;99.90;;;;;;5076624;28;20514;-71
2023/10/23 07:18:19;;;;;;;14.50;13.20;;;7.50;99.90;;;;;;5076202;28;20809;-72
2023/10/23 07:20:55;;;;;;;15.80;13.60;;;7.50;99.90;;;;;;5076761;28;20431;-71
2023/10/23 07:23:25;;;;;;;17.37;14.10;;;7.60;99.90;;;;;;5076330;28;20765;-71
2023/10/23 07:26:07;;;;;;;14.73;13.30;;;7.60;99.90;;;;;;5076150;28;20475;-71
2023/10/23 07:28:36;;;;;;;15.47;14.03;;;7.60;99.90;;;;;;5076067;28;20462;-71
2023/10/23 07:31:04;;;;;;;17.13;13.93;;;7.60;99.90;;;;;;5076052;28;20443;-71
2023/10/23 07:33:32;;;;;;;16.07;14.47;;;7.60;99.90;;;;;;5075983;28;20926;-71
2023/10/23 07:36:02;;;;;;;17.50;15.57;;;7.70;99.90;;;;;;5075901;28;20863;-71
2023/10/23 07:38:32;;;;;;;18.80;14.40;;;7.70;99.90;;;;;;5075823;28;20808;-71
2023/10/23 07:41:01;;;;;;;18.57;14.80;;;7.70;99.90;;;;;;5075874;28;20507;-71
2023/10/23 07:43:29;;;;;;;18.20;16.30;;;7.70;99.90;;;;;;5075743;28;20505;-71
2023/10/23 07:45:58;;;;;;;27.57;20.47;;;7.80;99.90;;;;;;5075712;28;20471;-71
2023/10/23 07:48:29;;;;;;;22.73;16.33;;;7.80;99.90;;;;;;5075755;28;20472;-71
2023/10/23 07:50:59;;;;;;;16.93;15.13;;;7.80;99.90;;;;;;5075584;28;20954;-71
2023/10/23 07:53:27;;;;;;;21.40;16.60;;;7.80;99.90;;;;;;5075168;28;20432;-71
2023/10/23 07:55:57;;;;;;;19.07;16.93;;;7.90;99.90;;;;;;5075846;28;20497;-71
2023/10/23 07:58:25;;;;;;;18.07;15.50;;;7.90;99.90;;;;;;5075394;28;20504;-71
2023/10/23 08:01:04;;;;;;;21.13;17.33;;;7.90;99.90;;;;;;5075056;28;20448;-71
2023/10/23 08:03:33;;;;;;;16.30;14.77;;;7.90;99.90;;;;;;5075739;28;20506;-71
2023/10/23 08:06:03;;;;;;;18.33;16.53;;;7.90;99.90;;;;;;5075367;28;21000;-71
2023/10/23 08:08:33;;;;;;;19.90;16.83;;;7.90;99.90;;;;;;5074023;28;20908;-71
2023/10/23 08:11:05;;;;;;;17.87;15.97;;;8.00;99.90;;;;;;5075937;28;20478;-71
2023/10/23 08:13:34;;;;;;;24.03;18.23;;;8.00;99.90;;;;;;5075386;28;20467;-71
2023/10/23 08:16:04;;;;;;;38.67;21.50;;;8.00;99.90;;;;;;5075120;28;20434;-71
2023/10/23 08:18:34;;;;;;;23.50;19.50;;;8.00;99.90;;;;;;5075089;28;21033;-71
2023/10/23 08:21:10;;;;;;;42.70;22.00;;;8.10;99.90;;;;;;5073923;28;20458;-71
2023/10/23 08:23:38;;;;;;;39.40;20.60;;;8.10;99.90;;;;;;5073702;28;20472;-71
2023/10/23 08:26:08;;;;;;;49.40;27.93;;;8.10;99.90;;;;;;5074951;28;20476;-71
2023/10/23 08:28:36;;;;;;;39.93;24.03;;;8.20;99.90;;;;;;5075101;28;20452;-71
2023/10/23 08:31:07;;;;;;;27.47;20.10;;;8.20;99.90;;;;;;5073618;28;20465;-71
2023/10/23 08:33:52;;;;;;;35.53;19.73;;;8.20;99.90;;;;;;5075143;28;20453;-71
2023/10/23 08:36:20;;;;;;;31.40;20.40;;;8.30;99.90;;;;;;5074722;28;20941;-71
2023/10/23 08:38:48;;;;;;;40.87;21.20;;;8.30;99.90;;;;;;5074568;28;20458;-71
2023/10/23 08:41:18;;;;;;;34.67;21.67;;;8.40;99.90;;;;;;5074624;28;20944;-71
2023/10/23 08:43:46;;;;;;;47.53;19.97;;;8.40;99.90;;;;;;5073305;28;20811;-71
2023/10/23 08:46:15;;;;;;;33.43;18.57;;;8.40;99.90;;;;;;5074818;28;20468;-71
2023/10/23 08:48:43;;;;;;;21.57;19.30;;;8.40;99.90;;;;;;5074417;28;20966;-71
2023/10/23 08:51:11;;;;;;;58.77;24.10;;;8.40;99.90;;;;;;5074463;28;20452;-71
2023/10/23 08:53:47;;;;;;;40.73;21.20;;;8.50;99.90;;;;;;5074620;28;20449;-71
2023/10/23 08:56:38;;;;;;;24.70;19.90;;;8.50;99.90;;;;;;5074835;28;20434;-71
2023/10/23 08:59:09;;;;;;;52.07;25.00;;;8.50;99.90;;;;;;5073312;28;20440;-71
2023/10/23 09:01:38;;;;;;;23.60;21.10;;;8.60;99.90;;;;;;5073062;28;20449;-71
2023/10/23 09:04:09;;;;;;;51.07;23.80;;;8.60;99.90;;;;;;5073658;28;20512;-71
2023/10/23 09:06:39;;;;;;;35.47;23.27;;;8.60;99.90;;;;;;5073987;28;20452;-71
2023/10/23 09:09:07;;;;;;;23.73;21.33;;;8.70;99.90;;;;;;5072962;28;20449;-71
2023/10/23 09:11:43;;;;;;;24.03;21.47;;;8.70;99.90;;;;;;5074604;28;20433;-72
2023/10/23 09:14:12;;;;;;;41.47;25.03;;;8.80;99.90;;;;;;5074307;28;20474;-71
2023/10/23 09:16:40;;;;;;;25.47;21.93;;;8.80;99.90;;;;;;5073986;28;20439;-71
2023/10/23 09:19:08;;;;;;;25.90;22.60;;;8.80;99.90;;;;;;5072725;28;20441;-71
2023/10/23 09:21:37;;;;;;;26.33;21.13;;;8.80;99.90;;;;;;5073915;28;20437;-71
2023/10/23 09:24:06;;;;;;;25.83;22.47;;;8.90;99.90;;;;;;5072620;28;20445;-71
2023/10/23 09:26:34;;;;;;;27.23;23.47;;;8.90;99.90;;;;;;5073870;28;20478;-72
2023/10/23 09:29:04;;;;;;;23.97;21.43;;;8.90;99.90;;;;;;5074045;28;20445;-71
2023/10/23 09:31:33;;;;;;;26.87;23.97;;;9.00;99.90;;;;;;5074233;28;20543;-71
2023/10/23 09:34:02;;;;;;;30.50;23.97;;;9.00;99.90;;;;;;5072396;28;20445;-71
2023/10/23 09:36:31;;;;;;;28.77;25.10;;;9.00;99.90;;;;;;5073545;28;20942;-71
2023/10/23 09:39:02;;;;;;;28.73;25.73;;;9.00;99.90;;;;;;5073787;28;20476;-71
2023/10/23 09:41:32;;;;;;;28.17;25.30;;;9.10;99.90;;;;;;5072270;28;20457;-71
2023/10/23 09:44:03;;;;;;;28.97;25.43;;;9.10;99.90;;;;;;5073625;28;20486;-71
2023/10/23 09:46:33;;;;;;;27.73;24.77;;;9.10;99.90;;;;;;5073587;28;20456;-71
2023/10/23 09:49:03;;;;;;;29.10;25.80;;;9.20;99.90;;;;;;5073904;28;20420;-71
2023/10/23 09:51:36;;;;;;;36.63;25.30;;;9.20;99.90;;;;;;5072518;28;20866;-71
2023/10/23 09:54:14;;;;;;;27.10;24.37;;;9.30;99.90;;;;;;5074048;28;20425;-71
2023/10/23 09:56:49;;;;;;;28.67;25.60;;;9.30;99.90;;;;;;5073437;28;20475;-71
2023/10/23 09:59:19;;;;;;;28.40;25.50;;;9.30;99.90;;;;;;5073711;28;20417;-71
2023/10/23 10:01:50;;;;;;;28.53;25.63;;;9.40;99.90;;;;;;5072015;28;20964;-71
2023/10/23 10:04:26;;;;;;;25.47;22.97;;;9.40;99.90;;;;;;5073353;28;20421;-71
2023/10/23 10:07:03;;;;;;;29.03;26.00;;;9.50;99.90;;;;;;5073233;28;20476;-71
2023/10/23 10:09:32;;;;;;;20.87;18.87;;;9.50;99.90;;;;;;5072094;28;20437;-71
2023/10/23 10:12:00;;;;;;;28.60;25.67;;;9.50;99.90;;;;;;5073222;28;20469;-71
2023/10/23 10:14:29;;;;;;;26.07;23.47;;;9.50;99.90;;;;;;5073206;28;21017;-71
2023/10/23 10:16:59;;;;;;;29.47;26.50;;;9.60;99.90;;;;;;5077846;28;20470;-71
2023/10/23 10:19:28;;;;;;;28.87;25.60;;;9.60;99.90;;;;;;5080329;28;20428;-71
2023/10/23 10:22:04;;;;;;;28.03;25.00;;;9.70;99.90;;;;;;5079844;28;20433;-71
2023/10/23 10:24:34;;;;;;;27.57;24.67;;;9.80;99.90;;;;;;5080107;28;20420;-71
2023/10/23 10:27:04;;;;;;;27.27;24.40;;;9.80;99.90;;;;;;5078310;28;20480;-71
2023/10/23 10:29:33;;;;;;;29.57;26.27;;;9.80;99.90;;;;;;5078570;28;20433;-71
2023/10/23 10:32:09;;;;;;;34.90;31.20;;;9.80;99.90;;;;;;5078671;28;20445;-71
2023/10/23 10:34:51;;;;;;;28.83;25.83;;;9.90;99.90;;;;;;5079870;28;20434;-71
2023/10/23 10:37:27;;;;;;;28.13;25.17;;;10.00;99.90;;;;;;5078352;28;20461;-71
2023/10/23 10:40:09;;;;;;;26.70;24.10;;;10.00;99.90;;;;;;5080212;28;20429;-71
2023/10/23 10:42:40;;;;;;;27.03;24.30;;;10.00;99.90;;;;;;5078593;28;20449;-71
2023/10/23 10:45:15;;;;;;;27.53;24.73;;;10.00;99.90;;;;;;5079954;28;20413;-71
2023/10/23 10:47:46;;;;;;;27.30;24.67;;;10.10;99.90;;;;;;5079355;28;20551;-71
2023/10/23 10:50:31;;;;;;;26.73;24.00;;;10.10;99.90;;;;;;5079852;28;20474;-71
2023/10/23 10:53:03;;;;;;;28.10;25.30;;;10.20;99.90;;;;;;5078228;28;20527;-71
2023/10/23 10:55:31;;;;;;;30.27;27.17;;;10.20;99.90;;;;;;5080013;28;20467;-71
2023/10/23 10:58:00;;;;;;;26.43;23.83;;;10.20;99.90;;;;;;5078071;28;20483;-71
2023/10/23 11:00:32;;;;;;;27.90;25.10;;;10.30;99.90;;;;;;5079643;28;20436;-71
2023/10/23 11:03:02;;;;;;;28.23;25.47;;;10.30;99.90;;;;;;5079820;28;21005;-71
2023/10/23 11:05:32;;;;;;;25.43;22.93;;;10.30;99.90;;;;;;5078206;28;20487;-71
2023/10/23 11:08:00;;;;;;;27.00;24.40;;;10.40;99.90;;;;;;5079565;28;20465;-71
2023/10/23 11:10:29;;;;;;;25.80;23.40;;;10.40;99.90;;;;;;5079415;28;20432;-71
2023/10/23 11:12:57;;;;;;;28.07;25.17;;;10.50;99.90;;;;;;5079678;28;20479;-71
2023/10/23 11:15:25;;;;;;;29.73;26.83;;;10.50;99.90;;;;;;5079612;28;20483;-71
2023/10/23 11:17:55;;;;;;;30.87;27.70;;;10.50;99.90;;;;;;5079389;28;20449;-71
2023/10/23 11:20:30;;;;;;;31.80;28.73;;;10.50;99.90;;;;;;5079194;28;20486;-71
2023/10/23 11:22:59;;;;;;;29.77;26.87;;;10.60;99.90;;;;;;5079708;28;20426;-71
2023/10/23 11:25:28;;;;;;;29.73;26.73;;;10.60;99.90;;;;;;5077994;28;20875;-71
2023/10/23 11:27:56;;;;;;;28.60;25.80;;;10.60;99.90;;;;;;5076816;28;20534;-71
2023/10/23 11:30:26;;;;;;;28.80;25.83;;;10.70;99.90;;;;;;5076333;28;20765;-71
2023/10/23 11:32:56;;;;;;;26.50;23.90;;;10.70;99.90;;;;;;5076433;28;20839;-71
2023/10/23 11:35:33;;;;;;;24.77;22.47;;;10.80;99.90;;;;;;5075944;28;20471;-71
2023/10/23 11:38:01;;;;;;;24.40;22.00;;;10.80;99.90;;;;;;5075947;28;20547;-71
2023/10/23 11:40:34;;;;;;;24.43;22.13;;;10.80;99.90;;;;;;5076246;28;20824;-71
2023/10/23 11:43:02;;;;;;;24.07;21.67;;;10.80;99.90;;;;;;5076428;28;20820;-71
2023/10/23 11:45:32;;;;;;;25.67;23.17;;;10.80;99.90;;;;;;5075858;28;20437;-71
2023/10/23 11:48:00;;;;;;;24.63;22.30;;;10.80;99.90;;;;;;5078017;28;20477;-71
2023/10/23 11:50:29;;;;;;;25.30;22.90;;;10.80;99.90;;;;;;5075944;28;20449;-71
2023/10/23 11:52:58;;;;;;;24.87;22.67;;;10.90;99.90;;;;;;5077664;28;20984;-71
2023/10/23 11:55:27;;;;;;;26.70;24.20;;;10.90;99.90;;;;;;5075838;28;20528;-71
2023/10/23 11:57:56;;;;;;;26.10;23.60;;;11.00;99.90;;;;;;5075449;28;20457;-71
2023/10/23 12:00:25;;;;;;;25.97;23.37;;;11.00;99.90;;;;;;5075519;28;20433;-71
2023/10/23 12:02:53;;;;;;;25.30;23.00;;;11.10;99.90;;;;;;5075437;28;20490;-71
2023/10/23 12:05:24;;;;;;;24.50;22.20;;;11.10;99.90;;;;;;5077204;28;20933;-71
2023/10/23 12:07:54;;;;;;;23.97;21.67;;;11.20;99.90;;;;;;5075589;28;21027;-71
2023/10/23 12:10:26;;;;;;;23.73;21.43;;;11.20;99.90;;;;;;5075369;28;20433;-71
2023/10/23 12:12:55;;;;;;;24.40;22.10;;;11.30;99.90;;;;;;5075670;28;20428;-71
2023/10/23 12:15:24;;;;;;;23.53;21.33;;;11.30;99.90;;;;;;5075215;28;20436;-71
2023/10/23 12:17:52;;;;;;;25.80;23.17;;;11.40;99.90;;;;;;5075360;28;21179;-71
2023/10/23 12:20:21;;;;;;;23.90;21.63;;;11.40;99.90;;;;;;5075397;28;20998;-71
2023/10/23 12:22:51;;;;;;;23.60;21.30;;;11.50;99.90;;;;;;5075585;28;20836;-72
2023/10/23 12:25:19;;;;;;;25.23;22.50;;;11.50;99.90;;;;;;5075340;28;20439;-71
2023/10/23 12:27:49;;;;;;;21.50;19.30;;;11.60;99.90;;;;;;5074994;28;20899;-71
2023/10/23 12:30:17;;;;;;;23.03;20.77;;;11.60;99.90;;;;;;5074882;28;20807;-71
2023/10/23 12:32:54;;;;;;;22.00;20.07;;;11.60;99.90;;;;;;5075235;28;20914;-71
2023/10/23 12:35:42;;;;;;;18.83;16.93;;;11.70;99.90;;;;;;5076570;22;21017;-71
2023/10/23 12:38:11;;;;;;;21.10;19.20;;;11.70;99.90;;;;;;5053714;28;20963;-71
2023/10/23 12:40:41;;;;;;;19.07;17.40;;;11.80;99.90;;;;;;5035688;28;20454;-71
2023/10/23 12:43:11;;;;;;;18.37;16.67;;;11.80;99.90;;;;;;5054589;28;20434;-71
2023/10/23 12:45:39;;;;;;;17.23;15.63;;;11.90;99.90;;;;;;5036689;28;20458;-71
2023/10/23 12:48:07;;;;;;;18.47;16.67;;;11.90;99.90;;;;;;5053101;28;21280;-71